Time;durP1;ratioP1;P1;durP2;ratioP2;P2;SDS_P1;SDS_P2;PMS_P1;PMS_P2;Temp;Humidity;BMP_temperature;BMP_pressure;BME280_temperature;BME280_humidity;BME280_pressure;Samples;Min_cycle;Max_cycle;Signal;HPM_P1;HPM_P2
2024/01/03 00:01:37;;;;;;;0.00;0.00;;;5.50;99.90;;;;;;5018668;28;20662;-64
2024/01/03 00:04:04;;;;;;;0.00;0.00;;;5.40;99.90;;;;;;5016723;28;20017;-64
2024/01/03 00:06:33;;;;;;;0.00;0.00;;;5.40;99.90;;;;;;5021485;28;20099;-65
2024/01/03 00:09:00;;;;;;;0.00;0.00;;;5.40;99.90;;;;;;5021454;28;20128;-64
2024/01/03 00:11:27;;;;;;;;;;;5.30;99.90;;;;;;5021236;28;20052;-64
2024/01/03 00:13:56;;;;;;;0.00;0.00;;;5.30;99.90;;;;;;5018940;28;19916;-63
2024/01/03 00:16:22;;;;;;;0.00;0.00;;;5.30;99.90;;;;;;5024101;28;20108;-64
2024/01/03 00:18:56;;;;;;;0.00;0.00;;;5.30;99.90;;;;;;5022689;28;20025;-63
2024/01/03 00:21:25;;;;;;;0.20;0.20;;;5.30;99.90;;;;;;5018011;28;20028;-64
2024/01/03 00:23:53;;;;;;;0.00;0.00;;;5.30;99.90;;;;;;5022105;28;20025;-65
2024/01/03 00:26:19;;;;;;;0.00;0.00;;;5.30;99.90;;;;;;5022748;28;20029;-63
2024/01/03 00:28:46;;;;;;;0.00;0.00;;;5.30;99.90;;;;;;5022483;28;20435;-65
2024/01/03 00:31:24;;;;;;;0.40;0.40;;;5.30;99.90;;;;;;5020391;28;20033;-64
2024/01/03 00:33:50;;;;;;;0.00;0.00;;;5.30;99.90;;;;;;5011568;28;21028;-64
2024/01/03 00:36:16;;;;;;;0.00;0.00;;;5.30;99.90;;;;;;5019737;28;20104;-64
2024/01/03 00:38:42;;;;;;;0.00;0.00;;;5.30;99.90;;;;;;5020426;28;20044;-65
2024/01/03 00:41:12;;;;;;;0.00;0.00;;;5.30;99.90;;;;;;5017370;28;20498;-64
2024/01/03 00:43:41;;;;;;;0.00;0.00;;;5.30;99.90;;;;;;5015229;28;20025;-65
2024/01/03 00:46:08;;;;;;;1.40;0.75;;;5.20;99.90;;;;;;5017074;28;20099;-64
2024/01/03 00:48:34;;;;;;;0.00;0.00;;;5.20;99.90;;;;;;5014369;28;20017;-64
2024/01/03 00:51:01;;;;;;;0.05;0.05;;;5.20;99.90;;;;;;5020761;28;20025;-66
2024/01/03 00:53:28;;;;;;;0.22;0.22;;;5.30;99.90;;;;;;5018084;28;20341;-64
2024/01/03 00:55:54;;;;;;;0.00;0.00;;;5.30;99.90;;;;;;5016582;28;20452;-63
2024/01/03 00:58:19;;;;;;;0.28;0.28;;;5.30;99.90;;;;;;5016954;28;20476;-64
2024/01/03 01:00:46;;;;;;;0.00;0.00;;;5.30;99.90;;;;;;5018663;28;20033;-65
2024/01/03 01:03:12;;;;;;;0.00;0.00;;;5.30;99.90;;;;;;5014775;28;20063;-65
2024/01/03 01:05:38;;;;;;;0.00;0.00;;;5.30;99.90;;;;;;5017043;28;20037;-64
2024/01/03 01:08:04;;;;;;;0.00;0.00;;;5.30;99.90;;;;;;5010707;28;20029;-65
2024/01/03 01:10:30;;;;;;;0.00;0.00;;;5.40;99.90;;;;;;5018163;28;20493;-65
2024/01/03 01:12:56;;;;;;;0.00;0.00;;;5.40;99.90;;;;;;5020020;28;20057;-66
2024/01/03 01:15:22;;;;;;;0.00;0.00;;;5.40;99.90;;;;;;5017925;28;20096;-64
2024/01/03 01:17:47;;;;;;;0.00;0.00;;;5.40;99.90;;;;;;5011985;28;20083;-63
2024/01/03 01:20:13;;;;;;;0.00;0.00;;;5.50;99.90;;;;;;5016563;28;20445;-64
2024/01/03 01:22:39;;;;;;;0.10;0.10;;;5.40;99.90;;;;;;5013677;28;20025;-63
2024/01/03 01:25:05;;;;;;;0.00;0.00;;;5.50;99.90;;;;;;5014520;28;20029;-64
2024/01/03 01:27:31;;;;;;;0.00;0.00;;;5.50;99.90;;;;;;5016659;28;20021;-64
2024/01/03 01:29:56;;;;;;;0.00;0.00;;;5.50;99.90;;;;;;5017065;28;20025;-64
2024/01/03 01:32:22;;;;;;;0.00;0.00;;;5.60;99.90;;;;;;5021770;28;20028;-64
2024/01/03 01:34:48;;;;;;;0.00;0.00;;;5.60;99.90;;;;;;5018690;28;20033;-64
2024/01/03 01:37:13;;;;;;;0.00;0.00;;;5.70;99.90;;;;;;5011638;28;20360;-64
2024/01/03 01:39:40;;;;;;;0.00;0.00;;;5.70;99.90;;;;;;5017191;28;20107;-66
2024/01/03 01:42:05;;;;;;;;;;;5.70;99.90;;;;;;5018374;28;20034;-66
2024/01/03 01:44:31;;;;;;;0.00;0.00;;;5.70;99.90;;;;;;5016218;28;20343;-66
2024/01/03 01:46:57;;;;;;;0.00;0.00;;;5.80;99.90;;;;;;5019531;28;20465;-66
2024/01/03 01:49:26;;;;;;;0.00;0.00;;;5.90;99.90;;;;;;5014175;28;20464;-66
2024/01/03 01:51:52;;;;;;;0.00;0.00;;;5.90;99.90;;;;;;5017321;28;20026;-66
2024/01/03 01:54:19;;;;;;;0.00;0.00;;;5.90;99.90;;;;;;5008160;28;20021;-66
2024/01/03 01:56:46;;;;;;;;;;;5.90;99.90;;;;;;5015585;28;20029;-66
2024/01/03 01:59:12;;;;;;;0.00;0.00;;;5.90;99.90;;;;;;5013734;28;19963;-67
2024/01/03 02:01:38;;;;;;;0.00;0.00;;;6.00;99.90;;;;;;5014790;28;20505;-67
2024/01/03 02:04:07;;;;;;;0.00;0.00;;;6.10;99.90;;;;;;5013284;28;20072;-67
2024/01/03 02:06:34;;;;;;;0.00;0.00;;;6.20;99.90;;;;;;5015477;28;20072;-66
2024/01/03 02:08:59;;;;;;;0.00;0.00;;;6.30;99.90;;;;;;5016711;28;20782;-67
2024/01/03 02:11:25;;;;;;;0.00;0.00;;;6.30;99.90;;;;;;5015415;28;20155;-67
2024/01/03 02:13:51;;;;;;;0.00;0.00;;;6.30;99.90;;;;;;5011218;28;20437;-66
2024/01/03 02:16:17;;;;;;;0.00;0.00;;;6.30;99.90;;;;;;5015296;28;20037;-66
2024/01/03 02:18:44;;;;;;;0.00;0.00;;;6.40;99.90;;;;;;5013483;28;20676;-67
2024/01/03 02:21:14;;;;;;;0.00;0.00;;;6.50;99.90;;;;;;5008431;28;20033;-66
2024/01/03 02:23:40;;;;;;;0.00;0.00;;;6.70;99.90;;;;;;5017716;28;20030;-66
2024/01/03 02:26:05;;;;;;;0.00;0.00;;;6.90;99.90;;;;;;5012899;28;20043;-67
2024/01/03 02:28:31;;;;;;;0.00;0.00;;;7.00;99.90;;;;;;5014286;28;20021;-67
2024/01/03 02:30:57;;;;;;;0.00;0.00;;;7.40;99.90;;;;;;5016766;28;20028;-66
2024/01/03 02:33:22;;;;;;;0.00;0.00;;;7.80;99.90;;;;;;5011912;28;20028;-66
2024/01/03 02:35:48;;;;;;;0.00;0.00;;;7.90;99.90;;;;;;5015529;28;20102;-67
2024/01/03 02:38:14;;;;;;;0.00;0.00;;;7.80;99.90;;;;;;5014967;28;20033;-67
2024/01/03 02:40:39;;;;;;;0.00;0.00;;;7.60;99.90;;;;;;5016460;28;20033;-67
2024/01/03 02:43:05;;;;;;;0.00;0.00;;;7.60;99.90;;;;;;5015811;28;20148;-67
2024/01/03 02:45:31;;;;;;;0.00;0.00;;;7.50;99.90;;;;;;5017200;28;20149;-67
2024/01/03 02:47:56;;;;;;;0.00;0.00;;;7.50;99.90;;;;;;5017512;28;20032;-67
2024/01/03 02:50:22;;;;;;;0.00;0.00;;;7.50;99.90;;;;;;5017709;28;20021;-66
2024/01/03 02:52:47;;;;;;;0.00;0.00;;;7.80;99.90;;;;;;5019593;28;20017;-66
2024/01/03 02:55:13;;;;;;;0.00;0.00;;;8.00;99.90;;;;;;5017295;28;20071;-66
2024/01/03 02:57:39;;;;;;;0.00;0.00;;;8.30;99.90;;;;;;5016078;28;20117;-66
2024/01/03 03:00:05;;;;;;;0.00;0.00;;;8.50;99.90;;;;;;5019454;28;20040;-67
2024/01/03 03:02:30;;;;;;;0.00;0.00;;;8.80;99.90;;;;;;5014803;28;20022;-67
2024/01/03 03:04:56;;;;;;;0.00;0.00;;;9.00;99.90;;;;;;5017258;28;20586;-67
2024/01/03 03:07:22;;;;;;;0.00;0.00;;;9.00;99.90;;;;;;5015655;28;20071;-67
2024/01/03 03:09:47;;;;;;;0.00;0.00;;;9.00;99.90;;;;;;5017067;28;20075;-67
2024/01/03 03:12:13;;;;;;;0.00;0.00;;;9.10;99.90;;;;;;5012988;28;20017;-67
2024/01/03 03:14:39;;;;;;;0.00;0.00;;;9.00;99.90;;;;;;5015673;28;20034;-67
2024/01/03 03:17:04;;;;;;;0.00;0.00;;;9.00;99.90;;;;;;5016670;28;20033;-67
2024/01/03 03:19:30;;;;;;;0.00;0.00;;;9.00;99.90;;;;;;5016316;28;20027;-67
2024/01/03 03:21:55;;;;;;;0.00;0.00;;;8.80;99.90;;;;;;5015976;28;20076;-67
2024/01/03 03:24:21;;;;;;;0.00;0.00;;;8.90;99.90;;;;;;5010463;28;20029;-67
2024/01/03 03:26:47;;;;;;;0.00;0.00;;;8.90;99.90;;;;;;5016320;28;20056;-66
2024/01/03 03:29:13;;;;;;;0.00;0.00;;;8.90;99.90;;;;;;5016369;28;20013;-66
2024/01/03 03:31:39;;;;;;;0.00;0.00;;;8.90;99.90;;;;;;5014745;28;20071;-67
2024/01/03 03:34:04;;;;;;;0.00;0.00;;;8.90;99.90;;;;;;5016302;28;20115;-67
2024/01/03 03:36:30;;;;;;;0.00;0.00;;;9.00;99.90;;;;;;5015128;28;20025;-67
2024/01/03 03:38:56;;;;;;;0.00;0.00;;;8.90;99.90;;;;;;5014984;28;20144;-67
2024/01/03 03:41:23;;;;;;;0.00;0.00;;;9.00;99.90;;;;;;5018830;28;20100;-66
2024/01/03 03:43:48;;;;;;;0.00;0.00;;;9.00;99.90;;;;;;5014951;28;20248;-67
2024/01/03 03:46:16;;;;;;;0.00;0.00;;;9.00;99.90;;;;;;5019245;28;20029;-67
2024/01/03 03:48:42;;;;;;;0.00;0.00;;;9.00;99.90;;;;;;5021209;28;20060;-67
2024/01/03 03:51:08;;;;;;;0.00;0.00;;;9.00;99.90;;;;;;5018845;28;20022;-67
2024/01/03 03:53:33;;;;;;;0.00;0.00;;;8.90;99.90;;;;;;5019139;28;20097;-67
2024/01/03 03:55:59;;;;;;;0.00;0.00;;;8.80;99.90;;;;;;5018539;28;20060;-67
2024/01/03 03:58:25;;;;;;;0.00;0.00;;;8.90;99.90;;;;;;5019467;28;20133;-66
2024/01/03 04:00:50;;;;;;;0.00;0.00;;;9.00;99.90;;;;;;5020463;28;20167;-67
2024/01/03 04:03:16;;;;;;;0.00;0.00;;;8.90;99.90;;;;;;5016476;28;20025;-67
2024/01/03 04:05:42;;;;;;;0.00;0.00;;;8.80;99.90;;;;;;5021613;28;20028;-67
2024/01/03 04:08:07;;;;;;;0.00;0.00;;;8.80;99.90;;;;;;5018544;28;20155;-66
2024/01/03 04:10:33;;;;;;;0.00;0.00;;;8.80;99.90;;;;;;5018416;28;20018;-67
2024/01/03 04:12:59;;;;;;;0.00;0.00;;;8.80;99.90;;;;;;5020368;28;20018;-67
2024/01/03 04:15:25;;;;;;;0.00;0.00;;;8.80;99.90;;;;;;5023264;28;20455;-67
2024/01/03 04:17:51;;;;;;;0.00;0.00;;;8.70;99.90;;;;;;5018735;28;20104;-67
2024/01/03 04:20:17;;;;;;;0.00;0.00;;;8.60;99.90;;;;;;5018290;28;20104;-67
2024/01/03 04:22:44;;;;;;;0.00;0.00;;;8.90;99.90;;;;;;5019110;28;20179;-67
2024/01/03 04:25:11;;;;;;;0.00;0.00;;;8.90;99.90;;;;;;5018570;28;20156;-67
2024/01/03 04:27:36;;;;;;;0.00;0.00;;;9.00;99.90;;;;;;5023127;28;20156;-67
2024/01/03 04:30:03;;;;;;;0.00;0.00;;;9.00;99.90;;;;;;5021637;28;20104;-67
2024/01/03 04:32:30;;;;;;;0.00;0.00;;;9.10;99.90;;;;;;5018590;28;20022;-67
2024/01/03 04:34:55;;;;;;;0.00;0.00;;;9.20;99.90;;;;;;5024118;28;20520;-67
2024/01/03 04:37:21;;;;;;;0.00;0.00;;;9.30;99.90;;;;;;5014729;28;20033;-67
2024/01/03 04:39:47;;;;;;;0.00;0.00;;;9.50;99.90;;;;;;5017021;28;20080;-67
2024/01/03 04:42:13;;;;;;;0.00;0.00;;;9.60;99.90;;;;;;5022448;28;20260;-67
2024/01/03 04:44:40;;;;;;;0.00;0.00;;;9.70;99.90;;;;;;5018437;28;20117;-67
2024/01/03 04:47:06;;;;;;;0.00;0.00;;;9.60;99.90;;;;;;5018531;28;21180;-67
2024/01/03 04:49:31;;;;;;;0.00;0.00;;;9.70;99.90;;;;;;5016064;28;20104;-67
2024/01/03 04:51:57;;;;;;;0.00;0.00;;;9.70;99.90;;;;;;5017987;28;20598;-67
2024/01/03 04:54:23;;;;;;;0.00;0.00;;;9.60;99.90;;;;;;5019410;28;20100;-67
2024/01/03 04:56:48;;;;;;;0.00;0.00;;;9.60;99.90;;;;;;5020599;28;20108;-67
2024/01/03 04:59:14;;;;;;;0.00;0.00;;;9.50;99.90;;;;;;5018116;28;20079;-67
2024/01/03 05:01:42;;;;;;;0.00;0.00;;;9.40;99.90;;;;;;5020003;28;20041;-66
2024/01/03 05:04:08;;;;;;;0.00;0.00;;;9.40;99.90;;;;;;5019171;28;20101;-67
2024/01/03 05:06:35;;;;;;;0.00;0.00;;;9.30;99.90;;;;;;5016689;28;20025;-67
2024/01/03 05:09:01;;;;;;;0.00;0.00;;;9.20;99.90;;;;;;5013404;28;20044;-65
2024/01/03 05:11:26;;;;;;;0.00;0.00;;;9.10;99.90;;;;;;5017224;28;20022;-64
2024/01/03 05:13:52;;;;;;;0.00;0.00;;;9.00;99.90;;;;;;5015651;28;20037;-65
2024/01/03 05:16:18;;;;;;;0.00;0.00;;;9.10;99.90;;;;;;5017583;28;20425;-66
2024/01/03 05:18:44;;;;;;;0.00;0.00;;;9.00;99.90;;;;;;5018960;28;20026;-64
2024/01/03 05:21:11;;;;;;;0.17;0.17;;;9.00;99.90;;;;;;5017882;28;20184;-64
2024/01/03 05:23:37;;;;;;;0.00;0.00;;;9.10;99.90;;;;;;5018380;28;20037;-64
2024/01/03 05:26:02;;;;;;;0.00;0.00;;;9.10;99.90;;;;;;5014293;28;20082;-64
2024/01/03 05:28:28;;;;;;;0.00;0.00;;;9.10;99.90;;;;;;5019528;28;20028;-65
2024/01/03 05:30:54;;;;;;;0.00;0.00;;;9.10;99.90;;;;;;5020192;28;20489;-64
2024/01/03 05:33:19;;;;;;;0.00;0.00;;;9.10;99.90;;;;;;5017686;28;20056;-66
2024/01/03 05:35:45;;;;;;;0.00;0.00;;;9.20;99.90;;;;;;5018259;28;20033;-65
2024/01/03 05:38:11;;;;;;;0.00;0.00;;;9.20;99.90;;;;;;5018477;28;20025;-64
2024/01/03 05:40:36;;;;;;;0.00;0.00;;;9.20;99.90;;;;;;5017544;28;20021;-64
2024/01/03 05:43:03;;;;;;;0.30;0.30;;;9.20;99.90;;;;;;5012131;28;20514;-64
2024/01/03 05:45:28;;;;;;;0.00;0.00;;;9.20;99.90;;;;;;5017149;28;20017;-63
2024/01/03 05:47:54;;;;;;;0.00;0.00;;;9.20;99.90;;;;;;5015882;28;20051;-64
2024/01/03 05:50:19;;;;;;;0.00;0.00;;;9.20;99.90;;;;;;5018368;28;20027;-64
2024/01/03 05:52:45;;;;;;;0.00;0.00;;;9.10;99.90;;;;;;5018252;28;20037;-65
2024/01/03 05:55:11;;;;;;;0.00;0.00;;;9.10;99.90;;;;;;5016651;28;20029;-64
2024/01/03 05:57:37;;;;;;;0.00;0.00;;;9.10;99.90;;;;;;5012616;28;20029;-64
2024/01/03 06:00:04;;;;;;;0.00;0.00;;;9.00;99.90;;;;;;5016707;28;20033;-64
2024/01/03 06:02:30;;;;;;;0.00;0.00;;;9.00;99.90;;;;;;5015431;28;20687;-64
2024/01/03 06:04:56;;;;;;;0.00;0.00;;;8.90;99.90;;;;;;5015835;28;20088;-64
2024/01/03 06:07:21;;;;;;;0.00;0.00;;;8.90;99.90;;;;;;5017240;28;20108;-65
2024/01/03 06:09:47;;;;;;;0.00;0.00;;;8.90;99.90;;;;;;5017918;28;20022;-64
2024/01/03 06:12:13;;;;;;;0.00;0.00;;;8.90;99.90;;;;;;5015944;28;20028;-65
2024/01/03 06:14:38;;;;;;;0.00;0.00;;;9.00;99.90;;;;;;5020775;28;20480;-64
2024/01/03 06:17:04;;;;;;;0.00;0.00;;;9.00;99.90;;;;;;5012649;28;20029;-64
2024/01/03 06:19:30;;;;;;;0.00;0.00;;;9.00;99.90;;;;;;5016272;28;20117;-65
2024/01/03 06:21:55;;;;;;;0.00;0.00;;;8.90;99.90;;;;;;5016543;28;20028;-65
2024/01/03 06:24:21;;;;;;;0.00;0.00;;;8.80;99.90;;;;;;5015937;28;20084;-64
2024/01/03 06:26:47;;;;;;;0.00;0.00;;;8.70;99.90;;;;;;5016513;28;20044;-64
2024/01/03 06:29:15;;;;;;;0.00;0.00;;;8.70;99.90;;;;;;5018002;28;20100;-64
2024/01/03 06:31:41;;;;;;;0.00;0.00;;;8.70;99.90;;;;;;5014263;28;20035;-64
2024/01/03 06:34:07;;;;;;;0.00;0.00;;;8.80;99.90;;;;;;5015846;28;20067;-64
2024/01/03 06:36:32;;;;;;;0.00;0.00;;;8.80;99.90;;;;;;5011156;28;20033;-64
2024/01/03 06:38:58;;;;;;;0.00;0.00;;;8.70;99.90;;;;;;5017088;28;20033;-64
2024/01/03 06:41:24;;;;;;;0.00;0.00;;;8.70;99.90;;;;;;5017465;28;20049;-65
2024/01/03 06:43:49;;;;;;;0.00;0.00;;;8.70;99.90;;;;;;5019139;28;20021;-66
2024/01/03 06:46:15;;;;;;;0.00;0.00;;;8.60;99.90;;;;;;5018022;28;20076;-67
2024/01/03 06:48:41;;;;;;;0.00;0.00;;;8.70;99.90;;;;;;5013953;28;20124;-64
2024/01/03 06:51:06;;;;;;;0.00;0.00;;;8.80;99.90;;;;;;5014751;28;20482;-64
2024/01/03 06:53:33;;;;;;;0.00;0.00;;;8.80;99.90;;;;;;5016520;28;20029;-64
2024/01/03 06:55:59;;;;;;;0.00;0.00;;;8.80;99.90;;;;;;5016444;28;20022;-64
2024/01/03 06:58:25;;;;;;;0.00;0.00;;;8.80;99.90;;;;;;5012402;28;20036;-64
2024/01/03 07:00:51;;;;;;;0.00;0.00;;;8.80;99.90;;;;;;5018567;28;20456;-65
2024/01/03 07:03:16;;;;;;;0.00;0.00;;;8.90;99.90;;;;;;5014304;28;20473;-64
2024/01/03 07:05:42;;;;;;;0.00;0.00;;;9.00;99.90;;;;;;5012230;28;20022;-64
2024/01/03 07:08:08;;;;;;;0.00;0.00;;;9.00;99.90;;;;;;5015643;28;20260;-64
2024/01/03 07:10:34;;;;;;;0.00;0.00;;;9.10;99.90;;;;;;5018018;28;20017;-65
2024/01/03 07:13:00;;;;;;;0.00;0.00;;;9.30;99.90;;;;;;5014083;28;20663;-64
2024/01/03 07:15:27;;;;;;;0.00;0.00;;;10.00;99.90;;;;;;5011018;28;20033;-66
2024/01/03 07:17:55;;;;;;;0.00;0.00;;;11.20;99.90;;;;;;5017553;28;20829;-65
2024/01/03 07:20:24;;;;;;;0.00;0.00;;;12.30;99.90;;;;;;5015571;28;20028;-67
2024/01/03 07:22:50;;;;;;;0.00;0.00;;;13.40;99.90;;;;;;5019196;28;20036;-69
2024/01/03 07:25:16;;;;;;;0.00;0.00;;;14.30;99.90;;;;;;5017267;28;20048;-68
2024/01/03 07:27:43;;;;;;;0.00;0.00;;;15.40;99.90;;;;;;5013535;28;20067;-63
2024/01/03 07:30:10;;;;;;;0.00;0.00;;;16.20;99.90;;;;;;5017996;28;20021;-63
2024/01/03 07:32:37;;;;;;;0.00;0.00;;;16.60;99.90;;;;;;5014904;28;20584;-64
2024/01/03 07:35:02;;;;;;;;;;;16.70;99.90;;;;;;5013913;28;20022;-65
2024/01/03 07:37:28;;;;;;;0.00;0.00;;;16.50;99.90;;;;;;5016908;28;19909;-65
2024/01/03 07:39:54;;;;;;;0.00;0.00;;;16.10;99.90;;;;;;5013655;28;20033;-68
2024/01/03 07:42:19;;;;;;;0.00;0.00;;;15.70;99.90;;;;;;5021714;28;20034;-68
2024/01/03 07:44:45;;;;;;;0.00;0.00;;;15.30;99.90;;;;;;5012701;28;20036;-68
2024/01/03 07:47:11;;;;;;;0.00;0.00;;;15.00;99.90;;;;;;5018546;28;20035;-64
2024/01/03 07:49:38;;;;;;;0.00;0.00;;;14.60;99.90;;;;;;5016029;28;20264;-66
2024/01/03 07:52:04;;;;;;;0.00;0.00;;;14.30;99.90;;;;;;5015919;28;20036;-67
2024/01/03 07:54:30;;;;;;;0.00;0.00;;;14.20;99.90;;;;;;5014955;28;20030;-65
2024/01/03 07:56:57;;;;;;;0.00;0.00;;;14.00;99.90;;;;;;5014254;28;20556;-68
2024/01/03 07:59:23;;;;;;;0.00;0.00;;;13.90;99.90;;;;;;5015060;28;20779;-69
2024/01/03 08:01:49;;;;;;;0.00;0.00;;;13.70;99.90;;;;;;5017552;28;20091;-68
2024/01/03 08:04:16;;;;;;;0.00;0.00;;;13.80;99.90;;;;;;5015640;28;20488;-68
2024/01/03 08:06:42;;;;;;;0.00;0.00;;;13.70;99.90;;;;;;5012242;28;20033;-67
2024/01/03 08:09:08;;;;;;;0.00;0.00;;;13.80;99.90;;;;;;5016870;28;20028;-67
2024/01/03 08:11:33;;;;;;;0.00;0.00;;;13.70;99.90;;;;;;5017088;28;20026;-68
2024/01/03 08:13:59;;;;;;;0.00;0.00;;;13.80;99.90;;;;;;5015715;28;20025;-68
2024/01/03 08:16:25;;;;;;;0.00;0.00;;;13.80;99.90;;;;;;5013222;28;20028;-67
2024/01/03 08:18:50;;;;;;;0.00;0.00;;;14.00;99.90;;;;;;5022744;28;20042;-68
2024/01/03 08:21:16;;;;;;;0.00;0.00;;;14.60;99.90;;;;;;5016774;28;20040;-68
2024/01/03 08:23:42;;;;;;;0.00;0.00;;;15.70;99.90;;;;;;5014124;28;20048;-69
2024/01/03 08:26:12;;;;;;;0.00;0.00;;;16.80;99.80;;;;;;5015630;28;20034;-68
2024/01/03 08:28:40;;;;;;;0.00;0.00;;;17.90;98.30;;;;;;5018371;28;20053;-69
2024/01/03 08:31:08;;;;;;;0.00;0.00;;;18.50;96.50;;;;;;5016638;28;20045;-68
2024/01/03 08:33:35;;;;;;;0.00;0.00;;;18.70;95.70;;;;;;5018786;28;20056;-71
2024/01/03 08:36:02;;;;;;;0.00;0.00;;;18.40;95.20;;;;;;5016352;28;20017;-67
2024/01/03 08:38:28;;;;;;;0.13;0.13;;;18.50;95.10;;;;;;5025763;28;20021;-68
2024/01/03 08:40:53;;;;;;;0.00;0.00;;;18.90;94.30;;;;;;5020658;28;20029;-68
2024/01/03 08:43:19;;;;;;;0.00;0.00;;;19.50;93.00;;;;;;5019479;28;20029;-68
2024/01/03 08:45:44;;;;;;;0.00;0.00;;;20.00;92.00;;;;;;5021154;28;20355;-68
2024/01/03 08:48:10;;;;;;;0.00;0.00;;;20.80;90.40;;;;;;5019244;28;20032;-67
2024/01/03 08:50:36;;;;;;;0.00;0.00;;;21.30;88.30;;;;;;5020679;28;20026;-67
2024/01/03 08:53:01;;;;;;;0.00;0.00;;;21.30;87.20;;;;;;5015079;28;20119;-69
2024/01/03 08:55:27;;;;;;;0.00;0.00;;;22.70;83.80;;;;;;5027926;28;20030;-68
2024/01/03 08:57:56;;;;;;;0.00;0.00;;;24.10;79.30;;;;;;5017701;28;20026;-68
2024/01/03 09:00:24;;;;;;;0.00;0.00;;;25.10;75.50;;;;;;5023366;28;20032;-68
2024/01/03 09:02:50;;;;;;;0.00;0.00;;;25.30;72.80;;;;;;5020961;28;20108;-68
2024/01/03 09:05:16;;;;;;;;;;;26.20;71.00;;;;;;5021201;28;20954;-68
2024/01/03 09:07:44;;;;;;;0.00;0.00;;;26.20;68.00;;;;;;5019473;28;19913;-68
2024/01/03 09:10:10;;;;;;;0.00;0.00;;;26.70;67.00;;;;;;5023796;28;20026;-68
2024/01/03 09:12:36;;;;;;;0.00;0.00;;;26.70;65.60;;;;;;5020261;28;20064;-68
2024/01/03 09:15:01;;;;;;;0.00;0.00;;;26.70;65.10;;;;;;5018028;28;20052;-68
2024/01/03 09:17:27;;;;;;;0.00;0.00;;;25.90;64.70;;;;;;5022067;28;20029;-68
2024/01/03 09:19:53;;;;;;;0.00;0.00;;;25.30;65.40;;;;;;5016640;28;20037;-68
2024/01/03 09:22:18;;;;;;;0.00;0.00;;;25.30;65.80;;;;;;5018521;28;20049;-70
2024/01/03 09:24:44;;;;;;;0.00;0.00;;;26.30;65.10;;;;;;5021302;28;20037;-63
2024/01/03 09:27:09;;;;;;;0.00;0.00;;;26.90;66.50;;;;;;5016218;28;20028;-65
2024/01/03 09:29:35;;;;;;;0.00;0.00;;;27.20;64.30;;;;;;5025034;28;20025;-65
2024/01/03 09:32:01;;;;;;;0.00;0.00;;;27.60;63.90;;;;;;5013654;28;20057;-64
2024/01/03 09:34:27;;;;;;;0.00;0.00;;;28.20;62.20;;;;;;5017198;28;20107;-66
2024/01/03 09:36:53;;;;;;;0.00;0.00;;;28.20;61.80;;;;;;5018148;28;20533;-64
2024/01/03 09:39:19;;;;;;;0.00;0.00;;;28.30;61.40;;;;;;5020845;28;20029;-63
2024/01/03 09:41:46;;;;;;;0.00;0.00;;;28.70;61.40;;;;;;5016148;28;20087;-64
2024/01/03 09:44:12;;;;;;;0.00;0.00;;;29.40;60.70;;;;;;5019550;28;20044;-63
2024/01/03 09:46:38;;;;;;;0.00;0.00;;;29.40;59.00;;;;;;5013331;28;20405;-63
2024/01/03 09:49:04;;;;;;;0.00;0.00;;;28.70;58.40;;;;;;5018620;28;20045;-64
2024/01/03 09:51:31;;;;;;;0.00;0.00;;;28.90;58.40;;;;;;5012223;28;20080;-63
2024/01/03 09:53:56;;;;;;;0.00;0.00;;;28.50;58.40;;;;;;5016599;28;20068;-68
2024/01/03 09:56:22;;;;;;;0.00;0.00;;;27.60;58.90;;;;;;5021085;28;20800;-68
2024/01/03 09:58:48;;;;;;;0.00;0.00;;;27.70;58.90;;;;;;5016739;28;20180;-68
2024/01/03 10:01:13;;;;;;;0.00;0.00;;;28.10;59.10;;;;;;5018954;28;20022;-69
2024/01/03 10:03:39;;;;;;;0.00;0.00;;;26.40;59.70;;;;;;5015389;28;20061;-68
2024/01/03 10:06:12;;;;;;;0.00;0.00;;;24.00;62.00;;;;;;5012593;28;20021;-68
2024/01/03 10:08:38;;;;;;;0.00;0.00;;;22.90;64.70;;;;;;5017542;28;20547;-68
2024/01/03 10:11:22;;;;;;;0.00;0.00;;;24.60;64.00;;;;;;5015397;28;20031;-68
2024/01/03 10:13:53;;;;;;;0.00;0.00;;;25.70;62.30;;;;;;5016705;28;20131;-68
2024/01/03 10:16:25;;;;;;;0.00;0.00;;;26.70;61.10;;;;;;5019967;28;20420;-68
2024/01/03 10:19:12;;;;;;;0.00;0.00;;;27.90;60.20;;;;;;5015139;28;20477;-65
2024/01/03 10:21:45;;;;;;;0.00;0.00;;;28.20;59.90;;;;;;5005002;28;20061;-65
2024/01/03 10:24:11;;;;;;;0.00;0.00;;;29.00;58.60;;;;;;5011117;28;20052;-66
2024/01/03 10:26:37;;;;;;;0.00;0.00;;;30.00;58.60;;;;;;5020510;28;20047;-66
2024/01/03 10:29:12;;;;;;;;;;;30.40;56.20;;;;;;5017760;28;20029;-66
2024/01/03 10:31:38;;;;;;;0.00;0.00;;;30.80;56.10;;;;;;5021761;28;20356;-66
2024/01/03 10:34:07;;;;;;;0.00;0.00;;;29.20;56.40;;;;;;5014452;28;20032;-66
2024/01/03 10:36:36;;;;;;;0.00;0.00;;;29.20;56.70;;;;;;5024604;28;20030;-66
2024/01/03 10:39:04;;;;;;;0.00;0.00;;;29.60;56.40;;;;;;5014278;28;20036;-66
2024/01/03 10:41:33;;;;;;;0.00;0.00;;;29.70;55.70;;;;;;5018589;28;20037;-66
2024/01/03 10:44:02;;;;;;;0.00;0.00;;;29.30;56.10;;;;;;5014033;28;20033;-65
2024/01/03 10:46:28;;;;;;;0.00;0.00;;;29.20;57.30;;;;;;5019572;28;20159;-65
2024/01/03 10:48:54;;;;;;;0.00;0.00;;;29.00;57.00;;;;;;5019323;28;20112;-65
2024/01/03 10:51:23;;;;;;;0.00;0.00;;;28.40;58.00;;;;;;5017226;28;20681;-66
2024/01/03 10:53:51;;;;;;;0.00;0.00;;;29.10;57.70;;;;;;5019078;28;20125;-66
2024/01/03 10:56:17;;;;;;;0.00;0.00;;;29.30;56.50;;;;;;5016825;28;20021;-66
2024/01/03 10:58:42;;;;;;;;;;;29.90;57.00;;;;;;5011912;28;20112;-65
2024/01/03 11:01:28;;;;;;;0.00;0.00;;;29.90;56.40;;;;;;5018434;28;20442;-65
2024/01/03 11:04:16;;;;;;;0.00;0.00;;;29.90;56.10;;;;;;5015157;28;20116;-65
2024/01/03 11:07:05;;;;;;;0.00;0.00;;;28.70;56.90;;;;;;5018020;28;20049;-65
2024/01/03 11:09:31;;;;;;;0.00;0.00;;;25.10;58.50;;;;;;5013002;28;20014;-64
2024/01/03 11:12:08;;;;;;;0.00;0.00;;;22.00;64.10;;;;;;5021234;28;20095;-64
2024/01/03 11:14:34;;;;;;;;;;;19.90;68.30;;;;;;5017028;28;20030;-63
2024/01/03 11:17:00;;;;;;;0.00;0.00;;;18.80;71.10;;;;;;5018018;28;19924;-63
2024/01/03 11:19:30;;;;;;;0.00;0.00;;;18.00;73.40;;;;;;5014695;28;20139;-62
2024/01/03 11:21:59;;;;;;;0.00;0.00;;;17.60;74.90;;;;;;5018047;28;20388;-62
2024/01/03 11:24:27;;;;;;;0.00;0.00;;;17.30;75.60;;;;;;5019608;28;20037;-63
2024/01/03 11:26:56;;;;;;;0.00;0.00;;;17.10;76.90;;;;;;5014447;28;20028;-63
2024/01/03 11:29:48;;;;;;;0.00;0.00;;;17.20;78.50;;;;;;5018378;28;20477;-62
2024/01/03 11:32:17;;;;;;;0.00;0.00;;;17.10;78.60;;;;;;5016247;28;20020;-62
2024/01/03 11:34:48;;;;;;;0.00;0.00;;;17.10;79.30;;;;;;5016279;28;20017;-62
2024/01/03 11:37:17;;;;;;;0.00;0.00;;;17.10;80.10;;;;;;5006286;28;20017;-62
2024/01/03 11:39:45;;;;;;;0.00;0.00;;;17.00;81.10;;;;;;5013520;28;20091;-63
2024/01/03 11:42:18;;;;;;;0.00;0.00;;;16.90;81.70;;;;;;5009340;28;20026;-63
2024/01/03 11:44:44;;;;;;;0.00;0.00;;;16.80;81.30;;;;;;5013698;28;20026;-62
2024/01/03 11:47:13;;;;;;;0.00;0.00;;;16.60;83.20;;;;;;5014907;28;20041;-63
2024/01/03 11:49:39;;;;;;;0.00;0.00;;;16.50;83.20;;;;;;5019527;28;20444;-63
2024/01/03 11:52:05;;;;;;;;;;;16.40;84.10;;;;;;5014186;28;20057;-63
2024/01/03 11:54:34;;;;;;;0.00;0.00;;;16.30;84.40;;;;;;5017814;28;19963;-63
2024/01/03 11:57:08;;;;;;;0.00;0.00;;;16.20;84.40;;;;;;5017817;28;20033;-63
2024/01/03 11:59:34;;;;;;;0.00;0.00;;;16.10;85.50;;;;;;5018953;28;20026;-63
2024/01/03 12:02:00;;;;;;;0.00;0.00;;;16.10;85.40;;;;;;5017317;28;20021;-62
2024/01/03 12:04:27;;;;;;;0.00;0.00;;;16.10;86.30;;;;;;5018880;28;20037;-62
2024/01/03 12:06:56;;;;;;;;;;;16.10;86.60;;;;;;5014914;28;20507;-62
2024/01/03 12:09:22;;;;;;;0.00;0.00;;;16.10;86.50;;;;;;5020114;28;20315;-62
2024/01/03 12:11:48;;;;;;;0.00;0.00;;;16.00;87.00;;;;;;5017803;28;20029;-62
2024/01/03 12:14:20;;;;;;;0.00;0.00;;;15.90;86.40;;;;;;5018663;28;20057;-62
2024/01/03 12:16:54;;;;;;;0.00;0.00;;;15.70;87.50;;;;;;5029038;28;20139;-63
2024/01/03 12:19:27;;;;;;;0.00;0.00;;;15.70;87.80;;;;;;5020186;28;20041;-67
2024/01/03 12:21:57;;;;;;;0.00;0.00;;;15.70;88.80;;;;;;5012119;28;20028;-67
2024/01/03 12:24:43;;;;;;;0.00;0.00;;;15.90;89.00;;;;;;5015206;28;20532;-67
2024/01/03 12:27:09;;;;;;;0.00;0.00;;;15.90;89.50;;;;;;5016212;28;20021;-67
2024/01/03 12:29:36;;;;;;;0.00;0.00;;;16.00;88.50;;;;;;5018316;28;20025;-67
2024/01/03 12:32:12;;;;;;;0.00;0.00;;;16.00;88.20;;;;;;5020613;28;20039;-67
2024/01/03 12:34:38;;;;;;;0.00;0.00;;;16.00;88.70;;;;;;5018151;28;20021;-64
2024/01/03 12:37:04;;;;;;;0.00;0.00;;;16.00;88.80;;;;;;5021401;28;20532;-64
2024/01/03 12:39:36;;;;;;;0.00;0.00;;;16.00;88.40;;;;;;5021127;28;20253;-63
2024/01/03 12:42:07;;;;;;;0.00;0.00;;;15.90;88.90;;;;;;5018197;28;20362;-64
2024/01/03 12:44:33;;;;;;;0.00;0.00;;;15.90;88.70;;;;;;5017615;28;20017;-63
2024/01/03 12:46:58;;;;;;;0.00;0.00;;;15.80;88.70;;;;;;5018036;28;20048;-64
2024/01/03 12:49:24;;;;;;;0.00;0.00;;;15.70;88.70;;;;;;5017008;28;20116;-63
2024/01/03 12:51:51;;;;;;;0.00;0.00;;;15.70;89.50;;;;;;5017540;28;20315;-64
2024/01/03 12:54:16;;;;;;;0.00;0.00;;;15.70;89.60;;;;;;5017111;28;20021;-63